createdAt,value
2023-03-02T00:02:12.794Z,33.35
2023-03-02T00:04:45.960Z,31.02
2023-03-02T00:07:20.785Z,33.17
2023-03-02T00:09:49.195Z,37.38
2023-03-02T00:12:21.135Z,33.15
2023-03-02T00:14:49.356Z,34.15
2023-03-02T00:17:17.885Z,33.25
2023-03-02T00:19:46.225Z,35.13
2023-03-02T00:22:15.275Z,32.45
2023-03-02T00:24:52.169Z,37.33
2023-03-02T00:27:24.900Z,38.08
2023-03-02T00:29:53.612Z,31.75
2023-03-02T00:32:22.315Z,31.67
2023-03-02T00:34:52.887Z,34.63
2023-03-02T00:37:21.548Z,29.48
2023-03-02T00:39:54.281Z,32.42
2023-03-02T00:42:23.445Z,31.65
2023-03-02T00:44:52.196Z,33.35
2023-03-02T00:47:20.849Z,36.03
2023-03-02T00:49:49.940Z,36.08
2023-03-02T00:52:19.016Z,33.75
2023-03-02T00:54:47.458Z,36.08
2023-03-02T00:57:16.878Z,34.60
2023-03-02T00:59:46.180Z,31.70
2023-03-02T01:02:17.044Z,35.88
2023-03-02T01:04:46.746Z,35.85
2023-03-02T01:07:18.373Z,35.30
2023-03-02T01:09:51.493Z,35.50
2023-03-02T01:12:21.397Z,39.70
2023-03-02T01:14:50.842Z,33.67
2023-03-02T01:17:19.509Z,32.60
2023-03-02T01:19:48.410Z,34.28
2023-03-02T01:22:18.029Z,33.63
2023-03-02T01:24:46.682Z,33.05
2023-03-02T01:27:14.979Z,36.13
2023-03-02T01:29:47.227Z,34.08
2023-03-02T01:32:15.673Z,35.47
2023-03-02T01:34:44.437Z,34.58
2023-03-02T01:37:15.996Z,34.40
2023-03-02T01:39:45.941Z,38.45
2023-03-02T01:43:22.351Z,37.70
2023-03-02T01:45:56.841Z,31.77
2023-03-02T01:48:29.861Z,36.38
2023-03-02T01:50:59.699Z,37.10
2023-03-02T01:53:33.043Z,35.05
2023-03-02T01:56:04.807Z,32.83
2023-03-02T01:58:40.631Z,36.78
2023-03-02T02:01:18.283Z,40.55
2023-03-02T02:03:50.472Z,32.08
2023-03-02T02:06:25.322Z,31.23
2023-03-02T02:08:55.600Z,33.45
2023-03-02T02:11:24.125Z,33.60
2023-03-02T02:13:55.082Z,31.40
2023-03-02T02:16:24.405Z,35.88
2023-03-02T02:18:52.950Z,32.95
2023-03-02T02:21:32.743Z,35.53
2023-03-02T02:24:09.866Z,37.05
2023-03-02T02:26:44.425Z,31.42
2023-03-02T02:29:15.293Z,35.83
2023-03-02T02:31:47.502Z,34.03
2023-03-02T02:34:23.078Z,41.42
2023-03-02T02:36:54.747Z,35.45
2023-03-02T02:39:28.963Z,32.47
2023-03-02T02:42:03.050Z,33.00
2023-03-02T02:44:35.206Z,31.92
2023-03-02T02:47:03.611Z,35.38
2023-03-02T02:49:35.423Z,36.65
2023-03-02T02:52:05.864Z,35.13
2023-03-02T02:54:36.385Z,42.78
2023-03-02T02:57:07.134Z,32.00
2023-03-02T02:59:40.149Z,35.90
2023-03-02T03:02:08.726Z,44.10
2023-03-02T03:04:37.614Z,32.45
2023-03-02T03:07:07.844Z,37.88
2023-03-02T03:09:36.369Z,37.83
2023-03-02T03:12:19.206Z,36.42
2023-03-02T03:14:47.796Z,34.90
2023-03-02T03:17:16.627Z,31.75
2023-03-02T03:19:47.216Z,36.63
2023-03-02T03:22:17.307Z,33.20
2023-03-02T03:24:48.125Z,38.63
2023-03-02T03:27:22.621Z,34.88
2023-03-02T03:29:53.447Z,38.83
2023-03-02T03:32:22.368Z,34.55
2023-03-02T03:34:51.915Z,31.30
2023-03-02T03:37:21.307Z,35.70
2023-03-02T03:39:51.876Z,36.58
2023-03-02T03:42:24.957Z,38.50
2023-03-02T03:44:54.825Z,32.63
2023-03-02T03:47:25.730Z,38.22
2023-03-02T03:49:54.197Z,35.83
2023-03-02T03:52:30.408Z,36.70
2023-03-02T03:55:01.883Z,36.38
2023-03-02T03:57:32.386Z,34.15
2023-03-02T04:00:00.643Z,33.53
2023-03-02T04:02:30.398Z,34.53
2023-03-02T04:05:06.341Z,37.72
2023-03-02T04:07:35.933Z,30.08
2023-03-02T04:10:05.873Z,35.67
2023-03-02T04:12:38.278Z,34.88
2023-03-02T04:15:09.267Z,32.38
2023-03-02T04:17:37.744Z,30.60
2023-03-02T04:20:09.537Z,30.48
2023-03-02T04:22:39.860Z,32.95
2023-03-02T04:25:08.383Z,34.10
2023-03-02T04:27:43.655Z,33.80
2023-03-02T04:30:13.721Z,28.67
2023-03-02T04:32:43.821Z,31.52
2023-03-02T04:35:12.407Z,35.78
2023-03-02T04:37:40.954Z,32.40
2023-03-02T04:40:12.393Z,28.42
2023-03-02T04:42:44.814Z,30.80
2023-03-02T04:45:14.992Z,34.22
2023-03-02T04:47:43.916Z,39.65
2023-03-02T04:50:15.771Z,38.35
2023-03-02T04:52:44.294Z,35.50
2023-03-02T04:55:19.340Z,34.17
2023-03-02T04:57:50.461Z,33.00
2023-03-02T05:00:21.708Z,32.53
2023-03-02T05:02:52.300Z,31.10
2023-03-02T05:05:22.354Z,29.40
2023-03-02T05:07:52.548Z,33.22
2023-03-02T05:10:21.835Z,34.40
2023-03-02T05:12:59.221Z,33.40
2023-03-02T05:15:31.396Z,38.00
2023-03-02T05:17:59.943Z,30.77
2023-03-02T05:20:30.616Z,30.63
2023-03-02T05:23:01.588Z,38.72
2023-03-02T05:25:35.157Z,33.65
2023-03-02T05:28:07.434Z,36.90
2023-03-02T05:30:38.143Z,34.88
2023-03-02T05:33:06.807Z,36.13
2023-03-02T05:35:37.249Z,38.35
2023-03-02T05:38:06.411Z,35.28
2023-03-02T05:40:36.745Z,38.15
2023-03-02T05:43:08.288Z,29.65
2023-03-02T05:45:42.196Z,38.28
2023-03-02T05:48:12.574Z,31.55
2023-03-02T05:50:41.171Z,33.80
2023-03-02T05:53:10.432Z,45.97
2023-03-02T05:55:44.726Z,41.72
2023-03-02T05:58:17.362Z,33.70
2023-03-02T06:00:46.032Z,37.75
2023-03-02T06:03:16.800Z,35.70
2023-03-02T06:05:45.202Z,40.10
2023-03-02T06:08:13.857Z,38.92
2023-03-02T06:10:44.682Z,38.63
2023-03-02T06:13:13.338Z,35.50
2023-03-02T06:15:43.293Z,45.53
2023-03-02T06:18:14.599Z,41.33
2023-03-02T06:20:45.595Z,42.15
2023-03-02T06:23:17.326Z,34.17
2023-03-02T06:25:48.754Z,34.35
2023-03-02T06:28:19.141Z,34.20
2023-03-02T06:30:49.934Z,40.75
2023-03-02T06:33:23.072Z,41.92
2023-03-02T06:35:51.460Z,36.72
2023-03-02T06:38:20.404Z,38.13
2023-03-02T06:40:51.486Z,44.38
2023-03-02T06:43:20.236Z,41.05
2023-03-02T06:45:51.754Z,34.20
2023-03-02T06:48:20.605Z,39.72
2023-03-02T06:50:49.028Z,34.75
2023-03-02T06:53:18.582Z,35.13
2023-03-02T06:55:48.629Z,35.95
2023-03-02T06:58:17.146Z,42.40
2023-03-02T07:00:45.439Z,34.05
2023-03-02T07:03:14.859Z,37.30
2023-03-02T07:05:46.061Z,34.60
2023-03-02T07:08:14.653Z,40.65
2023-03-02T07:10:43.271Z,37.70
2023-03-02T07:13:11.683Z,34.33
2023-03-02T07:15:40.594Z,35.55
2023-03-02T07:18:09.111Z,36.65
2023-03-02T07:20:39.609Z,34.83
2023-03-02T07:23:10.277Z,32.83
2023-03-02T07:25:38.618Z,35.30
2023-03-02T07:28:06.962Z,37.05
2023-03-02T07:30:35.318Z,37.05
2023-03-02T07:33:03.536Z,45.85
2023-03-02T07:35:31.858Z,37.25
2023-03-02T07:38:01.450Z,38.72
2023-03-02T07:40:29.973Z,34.45
2023-03-02T07:42:58.241Z,34.33
2023-03-02T07:45:26.698Z,35.88
2023-03-02T07:47:55.231Z,42.60
2023-03-02T07:50:23.503Z,34.53
2023-03-02T07:52:51.990Z,38.35
2023-03-02T07:55:21.763Z,34.35
2023-03-02T07:57:50.308Z,33.08
2023-03-02T08:00:23.945Z,36.15
2023-03-02T08:02:52.336Z,33.95
2023-03-02T08:05:21.466Z,33.08
2023-03-02T08:07:49.872Z,34.05
2023-03-02T08:10:18.531Z,33.47
2023-03-02T08:12:48.726Z,30.58
2023-03-02T08:15:18.251Z,32.33
2023-03-02T08:17:49.803Z,34.55
2023-03-02T08:20:18.188Z,31.52
2023-03-02T08:22:46.836Z,30.92
2023-03-02T08:25:15.494Z,35.03
2023-03-02T08:27:44.109Z,34.08
2023-03-02T08:30:15.146Z,34.35
2023-03-02T08:32:43.553Z,33.13
2023-03-02T08:35:13.043Z,38.90
2023-03-02T08:37:41.388Z,34.58
2023-03-02T08:40:10.572Z,35.35
2023-03-02T08:42:39.279Z,32.03
2023-03-02T08:45:08.435Z,38.67
2023-03-02T08:47:37.941Z,35.00
2023-03-02T08:50:06.914Z,37.33
2023-03-02T08:52:35.304Z,34.42
2023-03-02T08:55:04.324Z,36.60
2023-03-02T08:57:34.838Z,32.28
2023-03-02T09:00:03.734Z,37.47
2023-03-02T09:02:33.242Z,37.25
2023-03-02T09:05:02.957Z,35.72
2023-03-02T09:07:31.728Z,36.15
2023-03-02T09:10:00.419Z,30.08
2023-03-02T09:12:29.251Z,37.30
2023-03-02T09:14:57.576Z,30.95
2023-03-02T09:17:26.302Z,35.55
2023-03-02T09:19:54.653Z,32.45
2023-03-02T09:22:24.075Z,30.40
2023-03-02T09:24:52.460Z,33.40
2023-03-02T09:27:20.903Z,33.65
2023-03-02T09:29:49.710Z,34.47
2023-03-02T09:32:18.140Z,33.22
2023-03-02T09:34:46.621Z,36.83
2023-03-02T09:37:15.196Z,32.30
2023-03-02T09:39:44.531Z,36.45
2023-03-02T09:42:22.877Z,34.90
2023-03-02T09:45:22.386Z,33.38
2023-03-02T09:48:02.715Z,36.80
2023-03-02T09:50:33.820Z,40.20
2023-03-02T09:53:37.607Z,36.80
2023-03-02T09:58:43.249Z,30.33
2023-03-02T10:01:17.161Z,27.90
2023-03-02T10:03:52.677Z,30.38
2023-03-02T10:06:21.751Z,28.23
2023-03-02T10:08:51.248Z,27.90
2023-03-02T10:11:30.697Z,32.08
2023-03-02T10:14:04.841Z,31.45
2023-03-02T10:16:39.787Z,29.63
2023-03-02T10:19:12.836Z,28.35
2023-03-02T10:21:42.484Z,30.88
2023-03-02T10:24:22.353Z,31.52
2023-03-02T10:26:55.793Z,28.65
2023-03-02T10:29:40.485Z,25.40
2023-03-02T10:32:17.869Z,29.83
2023-03-02T10:34:46.540Z,31.08
2023-03-02T10:37:17.670Z,29.75
2023-03-02T10:39:46.158Z,26.80
2023-03-02T10:42:19.250Z,27.88
2023-03-02T10:47:26.867Z,27.60
2023-03-02T10:49:57.389Z,28.63
2023-03-02T10:52:27.878Z,33.17
2023-03-02T10:55:07.250Z,29.33
2023-03-02T10:57:41.516Z,24.95
2023-03-02T11:00:23.062Z,25.67
2023-03-02T11:02:56.119Z,27.35
2023-03-02T11:05:37.166Z,26.10
2023-03-02T11:08:08.937Z,27.73
2023-03-02T11:10:39.361Z,26.75
2023-03-02T11:13:20.696Z,28.00
2023-03-02T11:15:52.590Z,32.35
2023-03-02T11:18:28.556Z,27.27
2023-03-02T11:21:01.644Z,26.13
2023-03-02T11:26:09.219Z,22.50
2023-03-02T11:28:49.888Z,23.60
2023-03-02T11:31:25.747Z,25.05
2023-03-02T11:34:17.233Z,30.33
2023-03-02T11:36:59.341Z,26.08
2023-03-02T11:39:54.658Z,25.25
2023-03-02T11:42:28.899Z,25.63
2023-03-02T11:45:02.980Z,28.63
2023-03-02T11:47:34.420Z,25.55
2023-03-02T11:50:07.630Z,26.80
2023-03-02T11:52:40.691Z,26.55
2023-03-02T11:57:49.911Z,23.88
2023-03-02T12:03:04.226Z,23.52
2023-03-02T12:05:42.589Z,25.77
2023-03-02T12:08:35.093Z,25.95
2023-03-02T12:11:08.896Z,24.23
2023-03-02T12:13:45.727Z,26.30
2023-03-02T12:16:23.486Z,25.25
2023-03-02T12:18:55.852Z,24.10
2023-03-02T12:21:51.614Z,23.33
2023-03-02T12:24:28.945Z,23.67
2023-03-02T12:27:09.749Z,23.08
2023-03-02T12:29:45.569Z,21.00
2023-03-02T12:32:25.095Z,27.70
2023-03-02T12:34:56.504Z,24.27
2023-03-02T12:37:29.410Z,26.40
2023-03-02T12:40:29.538Z,28.15
2023-03-02T12:43:21.655Z,25.35
2023-03-02T12:46:04.870Z,27.15
2023-03-02T12:48:45.805Z,23.15
2023-03-02T12:51:22.135Z,23.35
2023-03-02T12:53:51.467Z,21.15
2023-03-02T12:56:26.581Z,24.10
2023-03-02T12:59:03.626Z,22.15
2023-03-02T13:01:34.625Z,19.60
2023-03-02T13:04:06.833Z,21.13
2023-03-02T13:06:40.415Z,24.95
2023-03-02T13:09:09.793Z,23.58
2023-03-02T13:11:40.141Z,22.85
2023-03-02T13:14:28.717Z,25.90
2023-03-02T13:17:03.820Z,24.20
2023-03-02T13:19:35.838Z,24.15
2023-03-02T13:22:09.092Z,23.48
2023-03-02T13:24:51.896Z,29.63
2023-03-02T13:27:23.481Z,25.73
2023-03-02T13:29:53.112Z,23.20
2023-03-02T13:32:27.400Z,22.33
2023-03-02T13:35:05.039Z,20.42
2023-03-02T13:37:44.194Z,26.00
2023-03-02T13:40:43.150Z,21.90
2023-03-02T13:43:34.698Z,22.40
2023-03-02T13:46:05.693Z,21.80
2023-03-02T13:48:34.406Z,22.83
2023-03-02T13:51:21.558Z,23.13
2023-03-02T13:53:56.659Z,27.02
2023-03-02T13:56:31.967Z,25.15
2023-03-02T13:59:01.140Z,25.27
2023-03-02T14:01:30.415Z,21.15
2023-03-02T14:04:02.279Z,24.60
2023-03-02T14:06:32.679Z,21.48
2023-03-02T14:09:05.345Z,22.20
2023-03-02T14:11:39.091Z,23.10
2023-03-02T14:14:08.476Z,23.75
2023-03-02T14:16:37.450Z,21.15
2023-03-02T14:19:07.371Z,25.95
2023-03-02T14:21:37.273Z,24.15
2023-03-02T14:24:08.685Z,24.80
2023-03-02T14:26:41.123Z,21.23
2023-03-02T14:29:21.127Z,23.65
2023-03-02T14:31:51.756Z,23.02
2023-03-02T14:34:20.091Z,25.83
2023-03-02T14:36:53.315Z,21.80
2023-03-02T14:39:24.391Z,21.58
2023-03-02T14:41:54.747Z,25.70
2023-03-02T14:44:23.408Z,19.60
2023-03-02T14:46:52.981Z,20.80
2023-03-02T14:49:22.556Z,21.77
2023-03-02T14:51:59.183Z,20.08
2023-03-02T14:54:31.047Z,23.48
2023-03-02T14:57:00.618Z,23.88
2023-03-02T14:59:30.569Z,23.20
2023-03-02T15:02:06.096Z,18.80
2023-03-02T15:04:39.226Z,21.20
2023-03-02T15:07:13.623Z,22.10
2023-03-02T15:09:44.637Z,21.40
2023-03-02T15:12:18.610Z,20.63
2023-03-02T15:14:46.955Z,20.80
2023-03-02T15:17:15.879Z,20.50
2023-03-02T15:19:50.251Z,18.33
2023-03-02T15:22:19.750Z,23.25
2023-03-02T15:24:51.339Z,21.63
2023-03-02T15:27:23.095Z,22.13
2023-03-02T15:29:56.835Z,19.35
2023-03-02T15:32:28.754Z,19.73
2023-03-02T15:34:59.133Z,20.98
2023-03-02T15:37:32.790Z,20.85
2023-03-02T15:40:02.229Z,21.60
2023-03-02T15:42:33.876Z,22.38
2023-03-02T15:45:04.810Z,19.52
2023-03-02T15:47:34.981Z,18.55
2023-03-02T15:50:04.862Z,19.92
2023-03-02T15:52:37.181Z,22.67
2023-03-02T15:55:06.822Z,19.08
2023-03-02T15:57:39.022Z,20.48
2023-03-02T16:00:10.286Z,19.43
2023-03-02T16:02:40.974Z,21.15
2023-03-02T16:05:11.279Z,20.27
2023-03-02T16:07:40.691Z,21.15
2023-03-02T16:10:15.537Z,22.98
2023-03-02T16:12:48.573Z,18.05
2023-03-02T16:15:20.388Z,19.17
2023-03-02T16:17:51.800Z,19.02
2023-03-02T16:20:21.554Z,18.52
2023-03-02T16:22:51.973Z,18.60
2023-03-02T16:25:24.899Z,19.05
2023-03-02T16:27:54.739Z,17.38
2023-03-02T16:30:23.791Z,22.15
2023-03-02T16:32:52.087Z,17.13
2023-03-02T16:35:20.682Z,17.58
2023-03-02T16:37:49.292Z,20.30
2023-03-02T16:40:20.295Z,20.83
2023-03-02T16:42:48.842Z,19.25
2023-03-02T16:45:17.876Z,18.42
2023-03-02T16:47:46.407Z,16.88
2023-03-02T16:50:16.517Z,20.40
2023-03-02T16:52:45.444Z,23.85
2023-03-02T16:55:18.090Z,16.80
2023-03-02T16:57:51.210Z,17.88
2023-03-02T17:02:52.166Z,22.20
2023-03-02T17:05:22.295Z,18.10
2023-03-02T17:07:52.736Z,21.58
2023-03-02T17:10:24.728Z,16.52
2023-03-02T17:12:57.449Z,23.58
2023-03-02T17:15:27.052Z,16.33
2023-03-02T17:17:55.886Z,25.50
2023-03-02T17:20:24.977Z,26.55
2023-03-02T17:22:53.526Z,23.60
2023-03-02T17:25:23.190Z,28.90
2023-03-02T17:27:51.688Z,32.40
2023-03-02T17:30:22.249Z,26.15
2023-03-02T17:32:50.967Z,25.25
2023-03-02T17:35:19.573Z,21.45
2023-03-02T17:37:48.376Z,27.40
2023-03-02T17:40:18.371Z,27.70
2023-03-02T17:42:49.174Z,23.60
2023-03-02T17:45:18.431Z,27.55
2023-03-02T17:47:51.482Z,23.23
2023-03-02T17:50:21.437Z,24.80
2023-03-02T17:52:49.917Z,24.13
2023-03-02T17:55:18.684Z,26.67
2023-03-02T17:57:47.336Z,24.60
2023-03-02T18:00:18.550Z,25.88
2023-03-02T18:02:49.172Z,34.65
2023-03-02T18:05:18.934Z,32.38
2023-03-02T18:07:47.629Z,36.63
2023-03-02T18:10:16.612Z,30.33
2023-03-02T18:12:45.148Z,25.77
2023-03-02T18:15:14.754Z,36.15
2023-03-02T18:17:43.669Z,24.80
2023-03-02T18:20:14.937Z,30.65
2023-03-02T18:22:43.987Z,28.50
2023-03-02T18:25:12.923Z,27.10
2023-03-02T18:27:41.227Z,25.98
2023-03-02T18:30:12.323Z,30.25
2023-03-02T18:32:41.021Z,29.05
2023-03-02T18:35:11.348Z,25.33
2023-03-02T18:37:41.090Z,30.13
2023-03-02T18:40:12.534Z,26.92
2023-03-02T18:42:40.791Z,25.10
2023-03-02T18:45:12.913Z,25.60
2023-03-02T18:47:42.057Z,21.67
2023-03-02T18:50:15.092Z,23.55
2023-03-02T18:55:15.818Z,24.30
2023-03-02T18:57:44.522Z,24.35
2023-03-02T19:00:19.680Z,32.42
2023-03-02T19:02:48.591Z,23.80
2023-03-02T19:05:19.278Z,27.60
2023-03-02T19:07:49.927Z,26.50
2023-03-02T19:10:20.547Z,28.45
2023-03-02T19:12:50.419Z,28.35
2023-03-02T19:15:19.500Z,28.98
2023-03-02T19:17:48.189Z,27.50
2023-03-02T19:20:17.783Z,31.58
2023-03-02T19:22:49.268Z,26.17
2023-03-02T19:25:19.299Z,29.88
2023-03-02T19:27:55.240Z,28.48
2023-03-02T19:30:26.790Z,29.23
2023-03-02T19:32:55.838Z,26.20
2023-03-02T19:35:26.826Z,29.27
2023-03-02T19:37:56.004Z,26.08
2023-03-02T19:40:30.552Z,23.33
2023-03-02T19:43:00.292Z,26.70
2023-03-02T19:45:32.459Z,32.75
2023-03-02T19:48:02.724Z,28.73
2023-03-02T19:50:31.744Z,34.40
2023-03-02T19:53:01.986Z,28.38
2023-03-02T19:55:31.939Z,32.72
2023-03-02T19:58:04.841Z,23.88
2023-03-02T20:00:34.099Z,31.05
2023-03-02T20:03:02.615Z,28.20
2023-03-02T20:05:32.044Z,21.90
2023-03-02T20:08:02.155Z,27.42
2023-03-02T20:10:34.983Z,22.42
2023-03-02T20:13:03.697Z,24.85
2023-03-02T20:15:33.332Z,18.50
2023-03-02T20:18:03.871Z,41.30
2023-03-02T20:20:36.739Z,31.15
2023-03-02T20:23:05.616Z,31.50
2023-03-02T20:25:39.738Z,31.55
2023-03-02T20:28:12.496Z,34.47
2023-03-02T20:30:44.932Z,30.05
2023-03-02T20:33:14.155Z,24.83
2023-03-02T20:35:43.946Z,30.63
2023-03-02T20:38:16.099Z,30.55
2023-03-02T20:40:48.492Z,33.57
2023-03-02T20:43:19.027Z,28.00
2023-03-02T20:45:47.671Z,28.02
2023-03-02T20:48:17.515Z,28.35
2023-03-02T20:50:46.042Z,35.85
2023-03-02T20:53:15.347Z,34.15
2023-03-02T20:55:45.475Z,31.55
2023-03-02T20:58:16.129Z,37.55
2023-03-02T21:00:44.549Z,30.30
2023-03-02T21:03:13.530Z,28.75
2023-03-02T21:05:42.421Z,28.30
2023-03-02T21:08:12.607Z,28.52
2023-03-02T21:10:41.307Z,28.60
2023-03-02T21:13:12.118Z,29.75
2023-03-02T21:15:42.202Z,33.17
2023-03-02T21:18:12.376Z,29.23
2023-03-02T21:20:41.140Z,28.27
2023-03-02T21:23:11.069Z,35.78
2023-03-02T21:25:42.149Z,27.33
2023-03-02T21:28:11.920Z,25.65
2023-03-02T21:30:41.928Z,28.15
2023-03-02T21:33:11.264Z,22.40
2023-03-02T21:35:39.628Z,23.05
2023-03-02T21:38:10.278Z,24.65
2023-03-02T21:40:43.580Z,21.70
2023-03-02T21:43:11.999Z,28.67
2023-03-02T21:45:42.004Z,36.40
2023-03-02T21:48:11.033Z,30.40
2023-03-02T21:50:41.407Z,28.60
2023-03-02T21:53:15.942Z,25.45
2023-03-02T21:55:45.699Z,20.85
2023-03-02T21:58:14.570Z,19.27
2023-03-02T22:00:45.663Z,30.95
2023-03-02T22:03:16.155Z,35.83
2023-03-02T22:05:44.937Z,37.88
2023-03-02T22:08:15.939Z,29.25
2023-03-02T22:10:46.010Z,23.38
2023-03-02T22:13:23.324Z,20.00
2023-03-02T22:15:59.239Z,20.45
2023-03-02T22:18:27.770Z,18.40
2023-03-02T22:20:56.053Z,16.33
2023-03-02T22:23:27.129Z,19.23
2023-03-02T22:25:57.080Z,17.85
2023-03-02T22:28:28.472Z,19.85
2023-03-02T22:31:01.640Z,16.45
2023-03-02T22:33:31.783Z,17.92
2023-03-02T22:36:04.074Z,14.20
2023-03-02T22:38:32.667Z,17.10
2023-03-02T22:41:01.568Z,15.93
2023-03-02T22:43:31.354Z,19.63
2023-03-02T22:46:11.776Z,14.43
2023-03-02T22:48:40.407Z,17.83
2023-03-02T22:51:14.162Z,14.25
2023-03-02T22:53:49.322Z,17.08
2023-03-02T22:56:29.608Z,14.90
2023-03-02T22:59:04.469Z,22.02
2023-03-02T23:01:42.246Z,14.60
2023-03-02T23:04:19.104Z,15.98
2023-03-02T23:06:57.493Z,15.48
2023-03-02T23:09:28.060Z,17.42
2023-03-02T23:12:01.758Z,14.25
2023-03-02T23:14:37.136Z,15.02
2023-03-02T23:17:14.566Z,14.30
2023-03-02T23:19:43.164Z,17.92
2023-03-02T23:22:12.190Z,16.33
2023-03-02T23:24:40.574Z,14.27
2023-03-02T23:27:13.113Z,12.15
2023-03-02T23:29:41.481Z,12.90
2023-03-02T23:32:19.864Z,15.93
2023-03-02T23:34:48.579Z,13.50
2023-03-02T23:37:20.654Z,16.42
2023-03-02T23:39:50.723Z,14.97
2023-03-02T23:42:19.206Z,15.52
2023-03-02T23:44:47.908Z,14.48
2023-03-02T23:47:17.626Z,17.08
2023-03-02T23:49:45.888Z,20.95
2023-03-02T23:52:14.626Z,14.95
2023-03-02T23:54:45.361Z,15.15
2023-03-02T23:57:13.669Z,16.10
2023-03-02T23:59:42.270Z,16.85
